createdAt,value
2023-04-12T00:01:17.922Z,5.37
2023-04-12T00:03:45.607Z,6.10
2023-04-12T00:06:13.058Z,5.20
2023-04-12T00:08:40.575Z,3.93
2023-04-12T00:11:08.141Z,8.57
2023-04-12T00:13:35.684Z,4.27
2023-04-12T00:16:03.246Z,4.90
2023-04-12T00:18:30.777Z,5.50
2023-04-12T00:20:58.310Z,4.57
2023-04-12T00:23:25.890Z,5.22
2023-04-12T00:25:53.410Z,1.63
2023-04-12T00:28:20.944Z,4.73
2023-04-12T00:30:48.479Z,6.37
2023-04-12T00:33:16.082Z,5.37
2023-04-12T00:35:43.665Z,4.53
2023-04-12T00:38:11.171Z,4.67
2023-04-12T00:40:41.446Z,3.53
2023-04-12T00:43:08.983Z,3.87
2023-04-12T00:45:36.502Z,5.23
2023-04-12T00:48:04.177Z,5.03
2023-04-12T00:50:31.691Z,4.27
2023-04-12T00:52:59.231Z,5.62
2023-04-12T00:55:26.782Z,5.13
2023-04-12T00:57:54.315Z,4.47
2023-04-12T01:00:21.853Z,4.87
2023-04-12T01:02:49.492Z,7.00
2023-04-12T01:05:16.988Z,6.30
2023-04-12T01:07:56.319Z,6.50
2023-04-12T01:10:42.337Z,7.30
2023-04-12T01:13:33.559Z,4.37
2023-04-12T01:16:01.151Z,4.33
2023-04-12T01:18:28.630Z,2.93
2023-04-12T01:20:58.858Z,6.00
2023-04-12T01:23:32.172Z,8.13
2023-04-12T01:26:17.716Z,4.17
2023-04-12T01:28:45.152Z,4.53
2023-04-12T01:31:12.708Z,4.43
2023-04-12T01:33:40.279Z,3.90
2023-04-12T01:36:16.598Z,5.93
2023-04-12T01:38:44.132Z,5.35
2023-04-12T01:41:11.681Z,4.73
2023-04-12T01:43:45.294Z,5.57
2023-04-12T01:46:15.561Z,7.03
2023-04-12T01:48:43.016Z,2.40
2023-04-12T01:51:13.645Z,6.00
2023-04-12T01:53:49.787Z,5.70
2023-04-12T01:56:17.293Z,6.70
2023-04-12T01:58:44.812Z,5.97
2023-04-12T02:01:12.486Z,3.93
2023-04-12T02:03:40.051Z,7.53
2023-04-12T02:06:07.482Z,6.67
2023-04-12T02:08:35.091Z,6.17
2023-04-12T02:11:02.665Z,4.87
2023-04-12T02:13:30.248Z,7.82
2023-04-12T02:15:57.782Z,5.93
2023-04-12T02:18:25.337Z,7.07
2023-04-12T02:20:52.873Z,6.30
2023-04-12T02:23:20.408Z,6.18
2023-04-12T02:25:47.974Z,7.73
2023-04-12T02:28:15.511Z,4.13
2023-04-12T02:30:43.058Z,4.43
2023-04-12T02:33:10.670Z,8.47
2023-04-12T02:35:38.207Z,3.60
2023-04-12T02:38:05.717Z,4.93
2023-04-12T02:40:33.324Z,8.03
2023-04-12T02:43:00.852Z,6.17
2023-04-12T02:45:28.386Z,3.63
2023-04-12T02:47:56.056Z,3.03
2023-04-12T02:50:23.546Z,4.53
2023-04-12T02:52:51.096Z,5.40
2023-04-12T02:55:18.703Z,6.70
2023-04-12T02:57:46.239Z,2.93
2023-04-12T03:00:13.766Z,4.27
2023-04-12T03:02:41.434Z,3.47
2023-04-12T03:05:08.929Z,5.43
2023-04-12T03:07:36.462Z,4.13
2023-04-12T03:10:04.320Z,5.73
2023-04-12T03:12:31.850Z,6.63
2023-04-12T03:14:59.393Z,6.73
2023-04-12T03:17:27.000Z,5.83
2023-04-12T03:19:54.482Z,3.87
2023-04-12T03:22:22.004Z,5.60
2023-04-12T03:24:49.589Z,2.90
2023-04-12T03:27:17.152Z,4.67
2023-04-12T03:29:44.658Z,6.23
2023-04-12T03:32:12.202Z,6.93
2023-04-12T03:34:39.756Z,8.80
2023-04-12T03:37:07.297Z,6.18
2023-04-12T03:39:34.825Z,4.43
2023-04-12T03:42:02.351Z,6.00
2023-04-12T03:44:29.884Z,6.63
2023-04-12T03:46:57.441Z,5.87
2023-04-12T03:49:24.985Z,4.47
2023-04-12T03:51:52.499Z,5.40
2023-04-12T03:54:20.072Z,8.03
2023-04-12T03:56:47.602Z,4.47
2023-04-12T03:59:15.151Z,6.77
2023-04-12T04:01:42.761Z,8.13
2023-04-12T04:04:10.485Z,7.23
2023-04-12T04:06:37.785Z,9.67
2023-04-12T04:09:05.352Z,10.35
2023-04-12T04:11:32.908Z,8.43
2023-04-12T04:14:00.440Z,8.07
2023-04-12T04:16:28.074Z,7.67
2023-04-12T04:18:55.569Z,7.10
2023-04-12T04:21:23.093Z,8.80
2023-04-12T04:23:50.678Z,9.83
2023-04-12T04:26:18.212Z,8.03
2023-04-12T04:28:45.750Z,7.93
2023-04-12T04:31:13.348Z,7.17
2023-04-12T04:33:40.834Z,8.63
2023-04-12T04:36:08.442Z,7.43
2023-04-12T04:38:36.024Z,9.33
2023-04-12T04:41:03.588Z,8.43
2023-04-12T04:43:31.079Z,9.17
2023-04-12T04:45:58.758Z,9.27
2023-04-12T04:48:26.186Z,7.47
2023-04-12T04:50:53.720Z,7.80
2023-04-12T04:53:21.307Z,9.80
2023-04-12T04:55:48.840Z,8.03
2023-04-12T04:58:16.359Z,8.10
2023-04-12T05:00:44.213Z,7.97
2023-04-12T05:03:11.938Z,9.00
2023-04-12T05:05:39.291Z,7.10
2023-04-12T05:08:06.865Z,9.37
2023-04-12T05:10:34.416Z,7.97
2023-04-12T05:13:01.940Z,6.73
2023-04-12T05:15:29.508Z,7.10
2023-04-12T05:17:57.064Z,10.13
2023-04-12T05:20:24.566Z,8.97
2023-04-12T05:22:52.131Z,12.77
2023-04-12T05:25:19.685Z,7.30
2023-04-12T05:27:47.302Z,8.70
2023-04-12T05:30:14.764Z,7.53
2023-04-12T05:32:42.360Z,8.13
2023-04-12T05:35:09.836Z,7.40
2023-04-12T05:37:37.421Z,9.35
2023-04-12T05:40:04.937Z,9.50
2023-04-12T05:42:32.471Z,8.40
2023-04-12T05:45:00.100Z,10.73
2023-04-12T05:47:27.600Z,9.80
2023-04-12T05:49:55.103Z,8.10
2023-04-12T05:52:22.683Z,7.77
2023-04-12T05:54:50.214Z,12.32
2023-04-12T05:57:17.803Z,10.83
2023-04-12T05:59:45.353Z,7.27
2023-04-12T06:02:13.010Z,6.43
2023-04-12T06:04:50.226Z,11.95
2023-04-12T06:07:07.979Z,10.87
2023-04-12T06:09:35.533Z,9.30
2023-04-12T06:12:03.060Z,9.23
2023-04-12T06:14:30.625Z,7.30
2023-04-12T06:16:58.145Z,6.83
2023-04-12T06:19:25.669Z,10.67
2023-04-12T06:21:53.246Z,6.97
2023-04-12T06:24:20.781Z,6.87
2023-04-12T06:26:48.316Z,12.20
2023-04-12T06:29:15.971Z,7.77
2023-04-12T06:31:43.610Z,6.37
2023-04-12T06:34:11.045Z,10.80
2023-04-12T06:36:38.624Z,6.67
2023-04-12T06:39:06.128Z,7.37
2023-04-12T06:41:33.660Z,11.73
2023-04-12T06:44:01.260Z,8.20
2023-04-12T06:46:28.779Z,8.83
2023-04-12T06:48:56.430Z,8.37
2023-04-12T06:51:24.135Z,9.80
2023-04-12T06:53:51.421Z,5.87
2023-04-12T06:56:19.057Z,9.70
2023-04-12T06:58:46.512Z,9.93
2023-04-12T07:01:14.162Z,7.73
2023-04-12T07:03:41.675Z,5.63
2023-04-12T07:06:23.698Z,6.53
2023-04-12T07:08:36.687Z,9.15
2023-04-12T07:11:14.614Z,3.63
2023-04-12T07:13:31.788Z,4.40
2023-04-12T07:15:59.342Z,6.33
2023-04-12T07:18:26.856Z,7.50
2023-04-12T07:20:54.444Z,4.13
2023-04-12T07:23:21.966Z,6.60
2023-04-12T07:25:49.520Z,3.77
2023-04-12T07:28:17.112Z,4.40
2023-04-12T07:30:44.611Z,5.30
2023-04-12T07:33:19.174Z,6.60
2023-04-12T07:35:39.788Z,2.53
2023-04-12T07:38:07.367Z,3.83
2023-04-12T07:40:34.826Z,3.77
2023-04-12T07:43:02.433Z,8.53
2023-04-12T07:45:29.956Z,7.57
2023-04-12T07:47:57.627Z,3.67
2023-04-12T07:50:25.105Z,3.43
2023-04-12T07:52:52.632Z,3.90
2023-04-12T07:55:20.160Z,3.37
2023-04-12T07:57:47.735Z,5.17
2023-04-12T08:00:15.272Z,3.33
2023-04-12T08:02:42.940Z,2.10
2023-04-12T08:05:10.381Z,3.30
2023-04-12T08:07:37.917Z,3.25
2023-04-12T08:10:05.451Z,1.90
2023-04-12T08:12:33.034Z,2.87
2023-04-12T08:15:00.559Z,2.67
2023-04-12T08:17:28.141Z,2.08
2023-04-12T08:19:56.424Z,3.17
2023-04-12T08:22:23.931Z,1.27
2023-04-12T08:24:51.465Z,2.97
2023-04-12T08:27:19.108Z,2.33
2023-04-12T08:29:46.644Z,1.00
2023-04-12T08:32:14.167Z,1.50
2023-04-12T08:34:42.885Z,1.83
2023-04-12T08:37:09.269Z,0.90
2023-04-12T08:39:36.823Z,1.47
2023-04-12T08:42:04.407Z,1.80
2023-04-12T08:44:37.701Z,0.20
2023-04-12T08:47:05.359Z,0.97
2023-04-12T08:49:32.830Z,1.20
2023-04-12T08:52:09.452Z,0.50
2023-04-12T08:54:36.982Z,0.30
2023-04-12T08:57:04.572Z,0.60
2023-04-12T08:59:32.105Z,0.80
2023-04-12T09:01:59.694Z,0.20
2023-04-12T09:04:27.315Z,0.20
2023-04-12T09:06:54.896Z,0.27
2023-04-12T09:09:40.756Z,0.23
2023-04-12T09:12:08.300Z,0.93
2023-04-12T09:14:35.823Z,1.47
2023-04-12T09:17:03.525Z,1.13
2023-04-12T09:19:33.885Z,1.60
2023-04-12T09:22:01.433Z,0.20
2023-04-12T09:24:29.053Z,0.27
2023-04-12T09:27:05.708Z,0.47
2023-04-12T09:29:33.248Z,0.53
2023-04-12T09:32:03.826Z,1.23
2023-04-12T09:34:31.250Z,1.10
2023-04-12T09:36:58.845Z,0.55
2023-04-12T09:39:32.175Z,0.50
2023-04-12T09:42:05.464Z,0.20
2023-04-12T09:44:32.985Z,0.70
2023-04-12T09:47:00.653Z,0.10
2023-04-12T09:49:39.827Z,0.17
2023-04-12T09:52:07.432Z,0.13
2023-04-12T09:54:37.574Z,0.30
2023-04-12T09:57:05.145Z,0.10
2023-04-12T09:59:32.739Z,0.20
2023-04-12T10:02:00.429Z,0.63
2023-04-12T10:04:27.997Z,0.63
2023-04-12T10:06:55.357Z,0.23
2023-04-12T10:09:22.882Z,0.50
2023-04-12T10:11:50.437Z,0.50
2023-04-12T10:14:18.044Z,0.13
2023-04-12T10:16:45.696Z,1.12
2023-04-12T10:19:13.136Z,0.40
2023-04-12T10:21:40.706Z,0.33
2023-04-12T10:24:08.227Z,1.03
2023-04-12T10:26:35.749Z,0.40
2023-04-12T10:29:27.085Z,0.47
2023-04-12T10:31:54.665Z,0.75
2023-04-12T10:34:27.327Z,0.20
2023-04-12T10:37:00.715Z,0.47
2023-04-12T10:39:45.695Z,0.40
2023-04-12T10:42:24.958Z,0.30
2023-04-12T10:44:52.288Z,0.20
2023-04-12T10:47:50.193Z,0.60
2023-04-12T10:50:26.411Z,0.10
2023-04-12T10:53:14.393Z,0.53
2023-04-12T10:55:44.645Z,0.37
2023-04-12T10:58:12.080Z,0.20
2023-04-12T11:00:57.437Z,0.50
2023-04-12T11:03:27.379Z,0.47
2023-04-12T11:06:24.177Z,0.93
2023-04-12T11:08:34.549Z,0.50
2023-04-12T11:11:07.487Z,1.00
2023-04-12T11:13:35.296Z,0.30
2023-04-12T11:16:02.866Z,0.67
2023-04-12T11:18:30.453Z,0.67
2023-04-12T11:20:57.967Z,1.60
2023-04-12T11:23:25.510Z,0.20
2023-04-12T11:25:55.795Z,0.20
2023-04-12T11:28:29.771Z,0.45
2023-04-12T11:30:50.874Z,0.50
2023-04-12T11:33:33.551Z,0.30
2023-04-12T11:36:01.106Z,1.23
2023-04-12T11:38:28.632Z,0.67
2023-04-12T11:40:56.186Z,0.70
2023-04-12T11:43:23.735Z,0.20
2023-04-12T11:45:51.299Z,1.47
2023-04-12T11:48:18.901Z,3.30
2023-04-12T11:50:51.841Z,0.40
2023-04-12T11:53:13.942Z,1.37
2023-04-12T11:55:41.580Z,0.20
2023-04-12T11:58:10.292Z,0.13
2023-04-12T12:00:36.622Z,0.63
2023-04-12T12:03:07.539Z,0.30
2023-04-12T12:05:31.892Z,0.20
2023-04-12T12:08:01.254Z,0.20
2023-04-12T12:10:43.546Z,0.10
2023-04-12T12:12:54.365Z,1.13
2023-04-12T12:15:21.888Z,0.20
2023-04-12T12:17:49.513Z,0.03
2023-04-12T12:20:19.912Z,2.17
2023-04-12T12:22:47.455Z,0.97
2023-04-12T12:25:15.090Z,0.80
2023-04-12T12:27:42.703Z,0.17
2023-04-12T12:30:10.334Z,0.70
2023-04-12T12:32:37.878Z,0.40
2023-04-12T12:35:11.107Z,0.30
2023-04-12T12:37:38.629Z,0.60
2023-04-12T12:40:11.366Z,1.03
2023-04-12T12:42:38.864Z,2.53
2023-04-12T12:45:06.497Z,0.23
2023-04-12T12:47:34.176Z,2.27
2023-04-12T12:50:01.640Z,0.20
2023-04-12T12:52:29.140Z,0.87
2023-04-12T12:54:56.715Z,0.43
2023-04-12T12:57:24.266Z,1.10
2023-04-12T12:59:51.800Z,0.43
2023-04-12T13:02:19.524Z,1.50
2023-04-12T13:04:47.068Z,1.40
2023-04-12T13:07:14.444Z,0.87
2023-04-12T13:09:42.098Z,2.13
2023-04-12T13:12:09.640Z,2.07
2023-04-12T13:14:37.168Z,1.10
2023-04-12T13:17:04.742Z,2.28
2023-04-12T13:19:32.276Z,5.03
2023-04-12T13:21:59.804Z,2.10
2023-04-12T13:24:27.373Z,7.57
2023-04-12T13:26:54.900Z,2.93
2023-04-12T13:29:22.421Z,2.53
2023-04-12T13:31:50.020Z,1.33
2023-04-12T13:34:17.525Z,3.73
2023-04-12T13:36:45.060Z,1.83
2023-04-12T13:39:12.654Z,2.67
2023-04-12T13:41:40.169Z,3.13
2023-04-12T13:44:07.709Z,8.80
2023-04-12T13:46:35.382Z,1.73
2023-04-12T13:49:02.865Z,1.67
2023-04-12T13:51:30.380Z,3.63
2023-04-12T13:53:57.964Z,2.67
2023-04-12T13:56:25.505Z,2.25
2023-04-12T13:58:53.028Z,3.33
2023-04-12T14:01:20.627Z,2.03
2023-04-12T14:03:48.147Z,2.27
2023-04-12T14:06:15.686Z,2.50
2023-04-12T14:08:43.240Z,2.20
2023-04-12T14:11:10.774Z,4.10
2023-04-12T14:13:38.297Z,3.03
2023-04-12T14:16:05.842Z,1.03
2023-04-12T14:18:33.449Z,1.70
2023-04-12T14:21:00.957Z,1.17
2023-04-12T14:23:28.493Z,0.97
2023-04-12T14:25:56.043Z,0.93
2023-04-12T14:28:23.564Z,5.20
2023-04-12T14:30:54.108Z,1.03
2023-04-12T14:33:21.621Z,1.10
2023-04-12T14:35:49.140Z,1.30
2023-04-12T14:38:16.689Z,1.43
2023-04-12T14:40:44.230Z,0.30
2023-04-12T14:43:11.755Z,0.70
2023-04-12T14:45:39.408Z,1.00
2023-04-12T14:48:06.978Z,1.10
2023-04-12T14:50:34.494Z,4.80
2023-04-12T14:53:02.090Z,11.67
2023-04-12T14:55:29.635Z,1.73
2023-04-12T14:57:57.168Z,5.70
2023-04-12T15:00:24.790Z,2.80
2023-04-12T15:02:52.610Z,0.97
2023-04-12T15:05:19.944Z,1.77
2023-04-12T15:07:48.546Z,1.47
2023-04-12T15:10:14.951Z,1.70
2023-04-12T15:12:42.546Z,2.10
2023-04-12T15:15:10.028Z,2.57
2023-04-12T15:17:37.637Z,0.47
2023-04-12T15:20:10.610Z,2.53
2023-04-12T15:22:38.178Z,1.17
2023-04-12T15:25:05.718Z,2.17
2023-04-12T15:27:33.261Z,2.00
2023-04-12T15:30:00.862Z,2.93
2023-04-12T15:32:28.405Z,3.80
2023-04-12T15:34:55.922Z,2.60
2023-04-12T15:37:23.509Z,2.63
2023-04-12T15:39:51.027Z,2.37
2023-04-12T15:42:18.559Z,2.73
2023-04-12T15:44:46.165Z,0.60
2023-04-12T15:47:13.702Z,0.40
2023-04-12T15:49:41.263Z,1.73
2023-04-12T15:52:08.785Z,2.33
2023-04-12T15:54:36.321Z,1.20
2023-04-12T15:57:03.893Z,6.33
2023-04-12T15:59:31.389Z,0.87
2023-04-12T16:01:59.024Z,3.10
2023-04-12T16:04:26.574Z,12.93
2023-04-12T16:06:54.046Z,4.80
2023-04-12T16:09:21.561Z,1.20
2023-04-12T16:11:49.094Z,1.50
2023-04-12T16:14:16.638Z,2.60
2023-04-12T16:16:44.198Z,1.03
2023-04-12T16:19:11.814Z,3.87
2023-04-12T16:21:39.381Z,2.27
2023-04-12T16:24:06.928Z,1.63
2023-04-12T16:26:34.470Z,2.75
2023-04-12T16:29:02.055Z,2.80
2023-04-12T16:31:29.625Z,1.30
2023-04-12T16:33:57.123Z,2.43
2023-04-12T16:36:24.708Z,1.27
2023-04-12T16:38:52.272Z,1.17
2023-04-12T16:41:19.761Z,2.17
2023-04-12T16:43:47.347Z,3.30
2023-04-12T16:46:14.902Z,2.08
2023-04-12T16:48:42.436Z,2.63
2023-04-12T16:51:10.028Z,1.50
2023-04-12T16:53:37.547Z,1.10
2023-04-12T16:56:05.083Z,1.83
2023-04-12T16:58:32.662Z,1.40
2023-04-12T17:01:00.194Z,2.00
2023-04-12T17:03:27.878Z,3.90
2023-04-12T17:05:55.304Z,1.27
2023-04-12T17:08:22.851Z,0.53
2023-04-12T17:10:50.369Z,0.43
2023-04-12T17:13:20.056Z,2.23
2023-04-12T17:15:45.596Z,0.80
2023-04-12T17:18:13.079Z,1.90
2023-04-12T17:20:40.658Z,1.23
2023-04-12T17:23:08.178Z,0.33
2023-04-12T17:25:35.707Z,5.33
2023-04-12T17:28:03.287Z,2.50
2023-04-12T17:30:30.895Z,1.70
2023-04-12T17:32:58.372Z,1.50
2023-04-12T17:35:25.939Z,1.20
2023-04-12T17:37:53.488Z,0.40
2023-04-12T17:40:21.010Z,0.60
2023-04-12T17:42:48.558Z,0.80
2023-04-12T17:45:16.136Z,2.23
2023-04-12T17:47:43.674Z,2.53
2023-04-12T17:50:12.215Z,3.03
2023-04-12T17:52:39.720Z,4.30
2023-04-12T17:55:07.287Z,2.33
2023-04-12T17:57:34.857Z,1.23
2023-04-12T18:00:02.436Z,1.33
2023-04-12T18:02:30.073Z,2.97
2023-04-12T18:04:57.454Z,2.95
2023-04-12T18:07:24.996Z,2.07
2023-04-12T18:09:52.531Z,1.80
2023-04-12T18:12:20.065Z,3.20
2023-04-12T18:14:47.612Z,2.20
2023-04-12T18:17:15.155Z,2.08
2023-04-12T18:19:42.693Z,1.42
2023-04-12T18:22:10.234Z,2.17
2023-04-12T18:24:38.615Z,3.20
2023-04-12T18:27:05.353Z,3.27
2023-04-12T18:29:32.897Z,1.47
2023-04-12T18:32:00.498Z,2.90
2023-04-12T18:34:28.097Z,2.30
2023-04-12T18:36:55.650Z,2.47
2023-04-12T18:39:23.169Z,1.47
2023-04-12T18:41:50.710Z,2.97
2023-04-12T18:44:18.246Z,2.63
2023-04-12T18:46:45.843Z,2.73
2023-04-12T18:49:13.328Z,3.77
2023-04-12T18:51:40.841Z,2.60
2023-04-12T18:54:08.374Z,2.53
2023-04-12T18:56:35.977Z,5.23
2023-04-12T18:59:03.513Z,3.62
2023-04-12T19:01:31.056Z,2.07
2023-04-12T19:03:59.163Z,2.37
2023-04-12T19:06:26.401Z,1.43
2023-04-12T19:08:53.918Z,4.33
2023-04-12T19:11:21.507Z,3.20
2023-04-12T19:13:49.026Z,4.40
2023-04-12T19:16:16.595Z,2.53
2023-04-12T19:18:44.142Z,5.30
2023-04-12T19:21:11.653Z,2.00
2023-04-12T19:23:39.182Z,4.53
2023-04-12T19:26:06.815Z,2.50
2023-04-12T19:28:34.310Z,6.37
2023-04-12T19:31:01.846Z,3.20
2023-04-12T19:33:29.400Z,2.93
2023-04-12T19:35:56.991Z,2.47
2023-04-12T19:38:24.451Z,3.45
2023-04-12T19:40:52.066Z,4.20
2023-04-12T19:43:19.599Z,2.87
2023-04-12T19:45:47.160Z,4.83
2023-04-12T19:48:14.756Z,3.40
2023-04-12T19:50:42.266Z,5.30
2023-04-12T19:53:09.792Z,4.78
2023-04-12T19:55:37.365Z,6.40
2023-04-12T19:58:04.898Z,6.53
2023-04-12T20:00:32.413Z,7.47
2023-04-12T20:03:00.282Z,7.85
2023-04-12T20:05:27.781Z,4.40
2023-04-12T20:07:55.310Z,5.40
2023-04-12T20:10:22.902Z,4.60
2023-04-12T20:12:50.417Z,7.20
2023-04-12T20:15:17.946Z,4.53
2023-04-12T20:17:45.507Z,5.53
2023-04-12T20:20:13.014Z,2.77
2023-04-12T20:22:40.529Z,4.13
2023-04-12T20:25:08.134Z,4.30
2023-04-12T20:27:35.639Z,5.20
2023-04-12T20:30:06.292Z,5.50
2023-04-12T20:32:33.917Z,4.53
2023-04-12T20:35:01.445Z,4.47
2023-04-12T20:37:28.960Z,3.93
2023-04-12T20:39:56.492Z,3.60
2023-04-12T20:42:24.026Z,2.93
2023-04-12T20:44:51.570Z,3.70
2023-04-12T20:47:19.114Z,2.33
2023-04-12T20:49:46.650Z,2.23
2023-04-12T20:52:14.174Z,1.30
2023-04-12T20:54:41.730Z,1.37
2023-04-12T20:57:09.265Z,1.75
2023-04-12T20:59:36.778Z,0.70
2023-04-12T21:02:04.486Z,1.83
2023-04-12T21:04:32.014Z,2.97
2023-04-12T21:06:59.411Z,1.23
2023-04-12T21:09:26.968Z,3.37
2023-04-12T21:11:54.491Z,2.77
2023-04-12T21:14:22.021Z,2.17
2023-04-12T21:16:49.565Z,2.37
2023-04-12T21:19:17.123Z,2.23
2023-04-12T21:21:44.648Z,2.60
2023-04-12T21:24:12.180Z,3.17
2023-04-12T21:26:39.713Z,2.93
2023-04-12T21:29:07.267Z,1.03
2023-04-12T21:31:34.870Z,2.60
2023-04-12T21:34:02.381Z,1.15
2023-04-12T21:36:29.901Z,1.63
2023-04-12T21:38:57.706Z,4.07
2023-04-12T21:41:25.014Z,1.50
2023-04-12T21:43:52.550Z,0.77
2023-04-12T21:46:20.177Z,1.97
2023-04-12T21:48:47.654Z,1.20
2023-04-12T21:51:15.179Z,2.97
2023-04-12T21:53:42.744Z,2.47
2023-04-12T21:56:10.261Z,1.63
2023-04-12T21:58:37.793Z,0.57
2023-04-12T22:01:05.432Z,3.47
2023-04-12T22:03:33.031Z,4.43
2023-04-12T22:06:04.048Z,2.97
2023-04-12T22:08:28.080Z,2.90
2023-04-12T22:10:55.615Z,2.90
2023-04-12T22:13:23.133Z,4.17
2023-04-12T22:15:50.704Z,5.17
2023-04-12T22:18:18.229Z,1.83
2023-04-12T22:20:45.742Z,2.27
2023-04-12T22:23:13.596Z,1.97
2023-04-12T22:25:41.126Z,1.63
2023-04-12T22:28:08.673Z,1.67
2023-04-12T22:30:36.232Z,1.33
2023-04-12T22:33:03.803Z,3.53
2023-04-12T22:35:31.283Z,1.40
2023-04-12T22:37:58.864Z,2.03
2023-04-12T22:40:26.391Z,0.97
2023-04-12T22:42:53.915Z,1.87
2023-04-12T22:45:21.471Z,0.63
2023-04-12T22:47:49.025Z,1.43
2023-04-12T22:50:16.528Z,2.53
2023-04-12T22:52:44.060Z,2.70
2023-04-12T22:55:14.504Z,1.83
2023-04-12T22:57:42.043Z,2.87
2023-04-12T23:00:09.583Z,2.30
2023-04-12T23:02:37.161Z,2.17
2023-04-12T23:05:04.738Z,4.40
2023-04-12T23:07:32.200Z,2.53
2023-04-12T23:09:59.752Z,3.00
2023-04-12T23:12:27.277Z,4.13
2023-04-12T23:14:54.851Z,3.10
2023-04-12T23:17:22.470Z,4.97
2023-04-12T23:19:49.901Z,1.30
2023-04-12T23:22:17.476Z,2.30
2023-04-12T23:24:45.010Z,2.57
2023-04-12T23:27:12.534Z,0.77
2023-04-12T23:29:40.178Z,1.93
2023-04-12T23:32:07.724Z,3.12
2023-04-12T23:34:35.250Z,2.60
2023-04-12T23:37:02.861Z,1.37
2023-04-12T23:39:30.415Z,3.13
2023-04-12T23:41:57.946Z,5.80
2023-04-12T23:44:25.475Z,1.37
2023-04-12T23:46:53.076Z,1.90
2023-04-12T23:49:20.574Z,2.27
2023-04-12T23:51:48.093Z,3.12
2023-04-12T23:54:15.706Z,3.60
2023-04-12T23:56:43.247Z,3.10
2023-04-12T23:59:10.784Z,4.03
